Time;durP1;ratioP1;P1;durP2;ratioP2;P2;SDS_P1;SDS_P2;PMS_P1;PMS_P2;Temp;Humidity;BMP_temperature;BMP_pressure;BME280_temperature;BME280_humidity;BME280_pressure;Samples;Min_cycle;Max_cycle;Signal;HPM_P1;HPM_P2
2022/09/17 00:01:27;;;;;;;9.57;1.30;;;10.90;75.40;;;;;;4973145;28;20771;-84
2022/09/17 00:03:55;;;;;;;12.30;0.97;;;10.90;75.40;;;;;;4973292;28;20126;-84
2022/09/17 00:06:24;;;;;;;8.30;1.08;;;10.90;75.10;;;;;;4973103;28;20494;-84
2022/09/17 00:08:53;;;;;;;8.02;0.68;;;10.80;75.40;;;;;;4972678;28;20051;-84
2022/09/17 00:11:25;;;;;;;8.32;0.80;;;10.80;75.20;;;;;;4972966;28;20059;-84
2022/09/17 00:13:55;;;;;;;10.45;1.30;;;10.70;75.00;;;;;;4972840;28;20118;-84
2022/09/17 00:16:25;;;;;;;13.73;1.20;;;10.70;75.20;;;;;;4973113;28;20581;-84
2022/09/17 00:18:52;;;;;;;5.50;0.80;;;10.70;75.30;;;;;;4972712;28;20130;-84
2022/09/17 00:21:20;;;;;;;10.10;0.98;;;10.70;75.40;;;;;;4972959;28;20055;-84
2022/09/17 00:23:47;;;;;;;10.75;1.35;;;10.70;75.40;;;;;;4972617;28;20052;-84
2022/09/17 00:26:14;;;;;;;9.85;1.40;;;10.60;75.50;;;;;;4956840;28;20134;-84
2022/09/17 00:28:44;;;;;;;9.37;1.17;;;10.70;75.80;;;;;;4972631;28;20058;-84
2022/09/17 00:31:12;;;;;;;7.93;0.80;;;10.70;76.10;;;;;;4971860;28;20059;-84
2022/09/17 00:33:39;;;;;;;7.75;0.85;;;10.60;76.40;;;;;;4972558;28;20055;-85
2022/09/17 00:36:07;;;;;;;10.75;0.85;;;10.70;76.40;;;;;;4988710;28;20051;-84
2022/09/17 00:38:34;;;;;;;9.88;1.33;;;10.70;76.30;;;;;;4956356;28;20051;-84
2022/09/17 00:41:02;;;;;;;11.63;1.20;;;10.70;76.40;;;;;;4972581;28;20059;-84
2022/09/17 00:43:41;;;;;;;11.60;1.25;;;10.80;76.50;;;;;;4956292;28;20047;-84
2022/09/17 00:46:24;;;;;;;12.02;1.20;;;10.80;76.50;;;;;;4956194;28;20059;-85
2022/09/17 00:48:53;;;;;;;11.18;1.15;;;10.80;76.50;;;;;;4972124;28;20111;-84
2022/09/17 00:51:24;;;;;;;9.27;0.93;;;10.90;76.60;;;;;;4971963;28;20142;-84
2022/09/17 00:53:51;;;;;;;10.43;1.17;;;10.90;76.60;;;;;;4971733;28;20150;-84
2022/09/17 00:56:23;;;;;;;9.00;0.95;;;10.90;76.50;;;;;;4972245;28;20083;-84
2022/09/17 00:58:51;;;;;;;11.07;1.60;;;10.90;76.50;;;;;;4988382;28;21184;-84
2022/09/17 01:01:20;;;;;;;6.80;0.88;;;10.90;76.40;;;;;;4988530;28;20055;-84
2022/09/17 01:03:47;;;;;;;7.32;0.90;;;10.90;76.40;;;;;;4972126;28;20051;-84
2022/09/17 01:06:21;;;;;;;9.30;1.30;;;10.90;76.50;;;;;;4988643;28;20059;-84
2022/09/17 01:09:04;;;;;;;9.77;1.10;;;10.90;76.50;;;;;;4971987;28;20083;-84
2022/09/17 01:11:49;;;;;;;8.23;1.30;;;10.90;76.60;;;;;;4972079;28;20589;-84
2022/09/17 01:14:30;;;;;;;9.35;1.15;;;10.90;76.60;;;;;;4972462;28;20055;-84
2022/09/17 01:17:08;;;;;;;10.10;1.40;;;10.90;76.60;;;;;;4988265;28;20130;-84
2022/09/17 01:20:08;;;;;;;7.90;0.97;;;10.90;76.70;;;;;;4971142;28;20407;-84
2022/09/17 01:22:44;;;;;;;10.30;1.00;;;10.90;76.60;;;;;;4955687;28;20113;-84
2022/09/17 01:25:23;;;;;;;9.13;1.25;;;10.90;76.60;;;;;;4986387;28;20055;-84
2022/09/17 01:28:24;;;;;;;8.73;1.33;;;11.00;76.60;;;;;;4970018;28;20051;-84
2022/09/17 01:31:23;;;;;;;5.07;0.80;;;10.90;76.50;;;;;;4969604;28;20146;-84
2022/09/17 01:34:00;;;;;;;9.13;1.37;;;10.90;76.60;;;;;;4976913;28;20086;-84
2022/09/17 01:36:43;;;;;;;12.02;1.85;;;10.90;76.70;;;;;;4991080;28;20055;-84
2022/09/17 01:39:18;;;;;;;12.10;1.20;;;10.80;76.80;;;;;;4974395;28;20213;-84
2022/09/17 01:41:51;;;;;;;8.55;1.38;;;10.80;77.00;;;;;;4991091;28;20809;-84
2022/09/17 01:44:24;;;;;;;10.65;1.20;;;10.80;77.90;;;;;;4974855;28;20086;-84
2022/09/17 01:46:57;;;;;;;11.20;1.00;;;10.80;77.80;;;;;;4991035;28;20047;-84
2022/09/17 01:49:25;;;;;;;9.95;1.20;;;10.70;77.90;;;;;;4990789;28;20113;-84
2022/09/17 01:51:54;;;;;;;8.68;1.00;;;10.80;78.20;;;;;;4990930;28;20051;-84
2022/09/17 01:54:25;;;;;;;11.85;1.08;;;10.80;78.20;;;;;;4991305;28;20059;-83
2022/09/17 01:56:57;;;;;;;7.68;1.13;;;10.80;78.40;;;;;;4990901;28;20057;-84
2022/09/17 01:59:27;;;;;;;8.10;0.77;;;10.80;78.20;;;;;;4990594;28;20762;-84
2022/09/17 02:02:00;;;;;;;13.50;1.17;;;10.80;78.20;;;;;;4974840;28;20097;-83
2022/09/17 02:04:32;;;;;;;3.17;0.30;;;10.80;78.10;;;;;;4974236;28;20054;-84
2022/09/17 02:07:03;;;;;;;12.45;1.30;;;10.80;78.00;;;;;;4989508;28;20039;-84
2022/09/17 02:09:34;;;;;;;10.93;0.80;;;10.80;77.60;;;;;;4971042;28;20082;-84
2022/09/17 02:12:06;;;;;;;8.47;0.93;;;10.80;77.50;;;;;;4971027;28;20154;-83
2022/09/17 02:14:39;;;;;;;7.50;0.90;;;10.80;77.30;;;;;;4971219;28;20058;-84
2022/09/17 02:17:12;;;;;;;9.43;1.00;;;10.80;77.30;;;;;;4970978;28;20055;-84
2022/09/17 02:19:41;;;;;;;6.50;1.00;;;10.80;77.20;;;;;;4970973;28;20199;-84
2022/09/17 02:22:18;;;;;;;7.05;0.80;;;10.80;77.30;;;;;;4971159;28;20067;-84
2022/09/17 02:24:53;;;;;;;14.70;0.90;;;10.80;77.40;;;;;;4971030;28;20103;-85
2022/09/17 02:27:29;;;;;;;5.32;0.70;;;10.80;77.50;;;;;;4970505;28;20162;-84
2022/09/17 02:29:56;;;;;;;9.10;0.95;;;10.80;77.70;;;;;;4969525;28;20071;-83
2022/09/17 02:32:25;;;;;;;10.27;1.08;;;10.80;77.60;;;;;;4970294;28;20055;-84
2022/09/17 02:34:52;;;;;;;9.02;1.13;;;10.80;77.90;;;;;;4970969;28;20079;-84
2022/09/17 02:37:19;;;;;;;7.67;0.80;;;10.90;78.00;;;;;;4985843;28;20098;-84
2022/09/17 02:39:46;;;;;;;7.95;0.73;;;10.80;78.10;;;;;;4968979;28;20522;-84
2022/09/17 02:42:22;;;;;;;4.97;0.80;;;10.90;78.20;;;;;;4969249;28;20062;-84
2022/09/17 02:45:00;;;;;;;6.88;0.85;;;10.80;78.10;;;;;;4969235;28;20484;-84
2022/09/17 02:47:46;;;;;;;8.57;0.98;;;10.90;78.00;;;;;;4969025;28;20057;-85
2022/09/17 02:50:25;;;;;;;9.57;1.00;;;10.90;78.10;;;;;;4970449;28;20109;-84
2022/09/17 02:53:08;;;;;;;8.23;1.02;;;10.80;78.10;;;;;;4987302;28;20059;-85
2022/09/17 02:55:41;;;;;;;5.82;0.70;;;10.80;78.30;;;;;;4970621;28;20055;-84
2022/09/17 02:58:18;;;;;;;7.00;0.57;;;10.80;78.00;;;;;;4970567;28;20051;-84
2022/09/17 03:00:47;;;;;;;5.18;0.60;;;10.80;78.00;;;;;;4970355;28;20051;-85
2022/09/17 03:03:21;;;;;;;6.90;0.77;;;10.80;78.00;;;;;;4970652;28;20051;-84
2022/09/17 03:05:50;;;;;;;5.57;0.70;;;10.80;77.80;;;;;;4971098;28;20075;-84
2022/09/17 03:08:19;;;;;;;8.68;1.17;;;10.80;77.70;;;;;;4970520;28;20434;-84
2022/09/17 03:10:48;;;;;;;8.70;1.20;;;10.80;77.60;;;;;;4986155;28;20142;-85
2022/09/17 03:13:15;;;;;;;7.50;0.63;;;10.80;77.30;;;;;;4986937;28;20055;-84
2022/09/17 03:15:42;;;;;;;4.53;0.60;;;10.80;77.10;;;;;;4971543;28;20421;-84
2022/09/17 03:18:09;;;;;;;8.38;0.60;;;10.80;76.60;;;;;;4973797;28;20054;-83
2022/09/17 03:20:38;;;;;;;3.63;0.35;;;10.80;76.20;;;;;;4973516;28;20062;-84
2022/09/17 03:23:05;;;;;;;6.80;0.68;;;10.80;76.20;;;;;;4973836;28;20052;-84
2022/09/17 03:25:33;;;;;;;6.15;0.70;;;10.80;76.20;;;;;;4974024;28;20259;-84
2022/09/17 03:28:00;;;;;;;5.80;0.70;;;10.80;76.20;;;;;;4973716;28;20055;-84
2022/09/17 03:30:27;;;;;;;9.00;1.30;;;10.80;76.00;;;;;;4956715;28;20075;-84
2022/09/17 03:32:54;;;;;;;7.75;0.90;;;10.70;76.20;;;;;;4974005;28;20146;-84
2022/09/17 03:35:21;;;;;;;6.85;0.77;;;10.70;76.30;;;;;;4973295;28;20062;-84
2022/09/17 03:37:49;;;;;;;8.18;1.30;;;10.70;76.30;;;;;;4973338;28;20134;-84
2022/09/17 03:40:16;;;;;;;5.80;0.53;;;10.70;76.40;;;;;;4972746;28;20063;-85
2022/09/17 03:42:43;;;;;;;5.07;0.40;;;10.60;76.50;;;;;;4955451;28;20058;-84
2022/09/17 03:45:11;;;;;;;8.10;0.90;;;10.60;76.60;;;;;;4971833;28;20094;-84
2022/09/17 03:47:38;;;;;;;5.80;0.70;;;10.50;76.80;;;;;;4971458;28;20055;-84
2022/09/17 03:50:06;;;;;;;9.07;0.75;;;10.50;76.90;;;;;;4987522;28;20138;-84
2022/09/17 03:52:34;;;;;;;8.40;0.90;;;10.40;77.00;;;;;;4987941;28;20047;-84
2022/09/17 03:55:03;;;;;;;7.65;0.70;;;10.40;77.20;;;;;;4971921;28;20059;-84
2022/09/17 03:57:30;;;;;;;7.47;0.60;;;10.40;77.40;;;;;;4973197;28;20054;-84
2022/09/17 03:59:57;;;;;;;5.82;0.43;;;10.30;77.70;;;;;;4972872;28;20543;-83
2022/09/17 04:02:24;;;;;;;9.98;1.00;;;10.30;77.90;;;;;;4989429;28;20158;-84
2022/09/17 04:04:53;;;;;;;9.53;0.83;;;10.20;78.10;;;;;;4973070;28;20070;-84
2022/09/17 04:07:20;;;;;;;6.03;0.40;;;10.20;78.40;;;;;;4985485;28;20058;-85
2022/09/17 04:09:47;;;;;;;6.40;0.77;;;10.10;78.50;;;;;;4976369;28;20130;-85
2022/09/17 04:12:15;;;;;;;7.75;0.50;;;10.20;78.70;;;;;;4992371;28;20138;-85
2022/09/17 04:14:42;;;;;;;7.90;0.90;;;10.20;78.50;;;;;;4992739;28;20139;-84
2022/09/17 04:17:10;;;;;;;7.60;0.70;;;10.20;78.40;;;;;;4976150;28;20050;-84
2022/09/17 04:19:38;;;;;;;8.23;0.90;;;10.20;78.40;;;;;;4976034;28;20135;-85
2022/09/17 04:22:05;;;;;;;6.40;0.85;;;10.20;78.40;;;;;;4992865;28;20142;-84
2022/09/17 04:24:32;;;;;;;7.53;1.00;;;10.20;78.20;;;;;;4992361;28;20054;-84
2022/09/17 04:26:59;;;;;;;9.50;1.10;;;10.20;78.30;;;;;;4975669;28;20050;-84
2022/09/17 04:29:27;;;;;;;7.87;1.00;;;10.30;78.30;;;;;;4975364;28;20055;-85
2022/09/17 04:31:54;;;;;;;10.98;1.55;;;10.20;78.40;;;;;;4991941;28;20050;-85
2022/09/17 04:34:21;;;;;;;5.30;0.63;;;10.20;78.50;;;;;;4976044;28;20078;-84
2022/09/17 04:36:49;;;;;;;7.53;0.80;;;10.20;78.50;;;;;;4992116;28;20094;-85
2022/09/17 04:39:17;;;;;;;9.60;0.98;;;10.20;78.50;;;;;;4991930;28;20067;-84
2022/09/17 04:41:44;;;;;;;9.60;1.10;;;10.20;78.60;;;;;;4990354;28;20138;-84
2022/09/17 04:44:11;;;;;;;7.38;1.33;;;10.20;78.60;;;;;;4992133;28;20066;-84
2022/09/17 04:46:40;;;;;;;6.72;0.82;;;10.20;79.00;;;;;;4992145;28;20051;-84
2022/09/17 04:49:07;;;;;;;7.57;0.88;;;10.20;78.90;;;;;;4992202;28;20082;-84
2022/09/17 04:51:34;;;;;;;8.07;0.80;;;10.20;78.90;;;;;;4975605;28;20062;-84
2022/09/17 04:54:02;;;;;;;9.07;1.00;;;10.20;79.00;;;;;;4991866;28;20130;-84
2022/09/17 04:56:29;;;;;;;6.25;0.88;;;10.20;78.80;;;;;;4991520;28;20506;-84
2022/09/17 04:58:56;;;;;;;8.43;0.95;;;10.20;78.80;;;;;;4991273;28;20059;-84
2022/09/17 05:01:23;;;;;;;3.85;0.40;;;10.20;78.60;;;;;;4975140;28;20051;-85
2022/09/17 05:03:51;;;;;;;6.35;1.00;;;10.20;78.60;;;;;;4991421;28;20149;-84
2022/09/17 05:06:18;;;;;;;6.97;0.80;;;10.20;78.50;;;;;;4991851;28;20141;-84
2022/09/17 05:08:45;;;;;;;4.78;0.57;;;10.20;78.20;;;;;;4975037;28;20101;-84
2022/09/17 05:11:12;;;;;;;3.30;0.47;;;10.20;78.00;;;;;;4991171;28;20054;-84
2022/09/17 05:13:39;;;;;;;3.70;0.40;;;10.20;78.20;;;;;;4974157;28;20141;-84
2022/09/17 05:16:06;;;;;;;5.97;0.60;;;10.20;78.20;;;;;;4990496;28;20129;-85
2022/09/17 05:18:33;;;;;;;6.17;0.90;;;10.20;78.10;;;;;;4991179;28;20050;-84
2022/09/17 05:21:02;;;;;;;6.68;0.73;;;10.20;78.10;;;;;;4990877;28;20059;-84
2022/09/17 05:23:29;;;;;;;5.78;0.43;;;10.20;78.20;;;;;;4991429;28;20066;-84
2022/09/17 05:25:58;;;;;;;5.10;0.52;;;10.30;78.20;;;;;;4991185;28;20818;-85
2022/09/17 05:28:25;;;;;;;7.57;0.73;;;10.30;78.10;;;;;;5007700;28;20069;-84
2022/09/17 05:30:52;;;;;;;5.30;0.53;;;10.30;78.20;;;;;;4988679;28;20054;-84
2022/09/17 05:33:20;;;;;;;5.45;0.50;;;10.20;78.30;;;;;;4991174;28;20191;-85
2022/09/17 05:35:47;;;;;;;5.88;0.70;;;10.20;78.60;;;;;;4974840;28;20058;-84
2022/09/17 05:38:17;;;;;;;8.57;0.60;;;10.20;78.60;;;;;;4990120;28;20063;-85
2022/09/17 05:40:44;;;;;;;9.35;0.90;;;10.20;79.00;;;;;;4990791;28;20166;-84
2022/09/17 05:43:11;;;;;;;7.07;0.87;;;10.20;78.90;;;;;;4990791;28;20054;-84
2022/09/17 05:45:39;;;;;;;4.13;0.50;;;10.20;78.70;;;;;;4991101;28;20540;-85
2022/09/17 05:48:08;;;;;;;8.75;0.80;;;10.20;78.40;;;;;;4974675;28;20062;-84
2022/09/17 05:50:35;;;;;;;5.68;0.60;;;10.20;78.20;;;;;;4990668;28;20491;-84
2022/09/17 05:53:04;;;;;;;5.72;0.50;;;10.20;77.70;;;;;;4990876;28;20819;-84
2022/09/17 05:55:33;;;;;;;5.67;0.40;;;10.20;77.20;;;;;;4990755;28;20043;-85
2022/09/17 05:58:01;;;;;;;6.15;0.60;;;10.20;77.30;;;;;;4974331;28;20058;-84
2022/09/17 06:00:28;;;;;;;4.93;0.52;;;10.20;77.20;;;;;;4990358;28;20153;-85
2022/09/17 06:02:56;;;;;;;4.85;0.28;;;10.20;77.00;;;;;;4990932;28;20055;-84
2022/09/17 06:05:23;;;;;;;8.13;0.70;;;10.20;76.80;;;;;;4989771;28;20058;-84
2022/09/17 06:07:51;;;;;;;8.60;0.70;;;10.20;76.60;;;;;;4990415;28;20054;-84
2022/09/17 06:10:18;;;;;;;6.90;0.60;;;10.30;76.50;;;;;;4990602;28;20063;-86
2022/09/17 06:12:46;;;;;;;7.70;0.55;;;10.20;76.20;;;;;;4974511;28;20130;-85
2022/09/17 06:15:14;;;;;;;6.88;0.60;;;10.20;76.20;;;;;;4990802;28;20047;-84
2022/09/17 06:17:42;;;;;;;5.28;0.60;;;10.20;76.30;;;;;;5006824;28;20171;-84
2022/09/17 06:20:10;;;;;;;1.97;0.20;;;10.30;76.60;;;;;;4990681;28;20058;-85
2022/09/17 06:22:37;;;;;;;6.80;0.70;;;10.30;76.90;;;;;;4990518;28;20081;-85
2022/09/17 06:25:05;;;;;;;7.22;0.75;;;10.30;76.90;;;;;;4974232;28;20130;-84
2022/09/17 06:27:32;;;;;;;4.05;0.70;;;10.30;76.90;;;;;;4990389;28;20047;-84
2022/09/17 06:30:01;;;;;;;8.88;0.63;;;10.20;77.00;;;;;;4973395;28;20159;-85
2022/09/17 06:32:29;;;;;;;6.03;0.47;;;10.30;77.10;;;;;;4973791;28;20110;-86
2022/09/17 06:34:56;;;;;;;6.50;0.60;;;10.30;77.20;;;;;;4990250;28;20057;-85
2022/09/17 06:37:27;;;;;;;7.85;0.55;;;10.30;77.60;;;;;;4990058;28;20071;-85
2022/09/17 06:39:55;;;;;;;7.63;0.55;;;10.30;78.10;;;;;;4989804;28;20235;-85
2022/09/17 06:42:22;;;;;;;5.10;0.60;;;10.30;78.00;;;;;;4973816;28;20133;-85
2022/09/17 06:44:49;;;;;;;6.03;0.40;;;10.30;78.20;;;;;;4989970;28;20445;-84
2022/09/17 06:47:17;;;;;;;5.07;0.70;;;10.30;78.60;;;;;;4987396;28;20594;-87
2022/09/17 06:49:44;;;;;;;5.35;0.43;;;10.30;78.40;;;;;;4988307;28;20497;-87
2022/09/17 06:52:11;;;;;;;7.45;0.50;;;10.40;78.40;;;;;;4990976;28;20054;-87
2022/09/17 06:54:38;;;;;;;4.43;0.65;;;10.40;78.40;;;;;;4992255;28;20047;-85
2022/09/17 06:57:08;;;;;;;6.63;0.60;;;10.40;78.40;;;;;;4993187;28;20573;-90
2022/09/17 06:59:35;;;;;;;8.88;0.85;;;10.40;78.40;;;;;;4991197;28;20417;-87
2022/09/17 07:02:04;;;;;;;8.45;0.70;;;10.40;78.30;;;;;;4987202;28;20051;-89
2022/09/17 07:04:32;;;;;;;6.68;0.50;;;10.40;78.40;;;;;;4973320;28;20047;-86
2022/09/17 07:07:00;;;;;;;10.90;0.80;;;10.40;78.40;;;;;;4973146;28;20066;-88
2022/09/17 07:09:27;;;;;;;5.23;0.60;;;10.50;78.70;;;;;;4987973;28;20051;-89
2022/09/17 07:11:54;;;;;;;4.47;0.70;;;10.50;79.20;;;;;;4977890;28;20051;-89
2022/09/17 07:14:23;;;;;;;4.35;0.50;;;10.50;79.20;;;;;;4993227;28;20134;-88
2022/09/17 07:16:52;;;;;;;5.68;0.50;;;10.60;79.30;;;;;;4977772;28;20102;-88
2022/09/17 07:19:19;;;;;;;7.13;0.60;;;10.60;79.10;;;;;;4976843;28;20047;-86
2022/09/17 07:21:49;;;;;;;4.27;0.40;;;10.60;79.30;;;;;;4977343;28;20491;-88
2022/09/17 07:24:16;;;;;;;7.05;0.40;;;10.70;79.60;;;;;;4976493;28;20047;-86
2022/09/17 07:26:43;;;;;;;3.65;0.32;;;10.70;79.30;;;;;;4977029;28;20487;-85
2022/09/17 07:29:11;;;;;;;4.57;0.38;;;10.70;79.60;;;;;;4992915;28;20058;-84
2022/09/17 07:31:38;;;;;;;5.00;0.30;;;10.80;79.60;;;;;;4993149;28;20055;-87
2022/09/17 07:34:05;;;;;;;1.40;0.20;;;10.80;79.90;;;;;;4976993;28;20058;-82
2022/09/17 07:36:32;;;;;;;5.78;0.40;;;10.90;81.10;;;;;;4977278;28;20161;-88
2022/09/17 07:39:00;;;;;;;3.95;0.70;;;11.00;80.50;;;;;;4976896;28;20054;-82
2022/09/17 07:41:27;;;;;;;3.08;0.38;;;11.10;79.40;;;;;;4992153;28;20955;-85
2022/09/17 07:43:55;;;;;;;3.22;0.30;;;11.10;79.20;;;;;;4991667;28;20106;-82
2022/09/17 07:46:22;;;;;;;4.40;0.80;;;11.10;78.90;;;;;;4975884;28;20058;-82
2022/09/17 07:48:50;;;;;;;6.55;0.57;;;11.10;78.00;;;;;;4992293;28;20636;-82
2022/09/17 07:51:19;;;;;;;7.05;0.52;;;11.20;78.20;;;;;;4992020;28;20047;-78
2022/09/17 07:53:46;;;;;;;4.57;0.30;;;11.30;78.20;;;;;;4991432;28;20047;-82
2022/09/17 07:56:15;;;;;;;5.10;0.20;;;11.30;78.80;;;;;;4992193;28;20581;-81
2022/09/17 07:58:42;;;;;;;4.50;0.60;;;11.30;78.20;;;;;;4976050;28;20051;-81
2022/09/17 08:01:11;;;;;;;2.97;0.30;;;11.40;78.20;;;;;;4991306;28;20078;-82
2022/09/17 08:03:39;;;;;;;4.70;0.40;;;11.40;78.50;;;;;;4990523;28;20053;-79
2022/09/17 08:06:09;;;;;;;4.60;0.40;;;11.50;78.60;;;;;;4974556;28;20055;-81
2022/09/17 08:08:37;;;;;;;5.53;0.60;;;11.50;78.30;;;;;;4975666;28;20094;-82
2022/09/17 08:11:05;;;;;;;4.67;0.30;;;11.70;76.80;;;;;;4975946;28;20059;-80
2022/09/17 08:13:35;;;;;;;5.50;0.38;;;11.70;76.50;;;;;;4991803;28;20167;-80
2022/09/17 08:16:04;;;;;;;5.70;0.30;;;11.70;76.40;;;;;;4990321;28;20543;-80
2022/09/17 08:18:32;;;;;;;3.83;0.22;;;11.80;76.80;;;;;;4993680;28;20051;-81
2022/09/17 08:20:59;;;;;;;3.50;0.35;;;11.80;76.60;;;;;;4991557;28;20145;-81
2022/09/17 08:23:28;;;;;;;4.17;0.43;;;11.80;76.80;;;;;;4975209;28;20106;-84
2022/09/17 08:25:56;;;;;;;4.10;0.30;;;11.80;77.00;;;;;;4992073;28;20063;-84
2022/09/17 08:28:24;;;;;;;5.45;0.57;;;11.80;77.20;;;;;;4991587;28;20055;-85
2022/09/17 08:30:53;;;;;;;3.00;0.43;;;11.80;77.20;;;;;;4991516;28;20055;-85
2022/09/17 08:33:21;;;;;;;3.35;0.20;;;11.80;77.20;;;;;;4991560;28;20058;-81
2022/09/17 08:35:52;;;;;;;6.17;0.40;;;11.90;77.00;;;;;;4975488;28;20081;-82
2022/09/17 08:38:19;;;;;;;2.33;0.38;;;11.90;76.50;;;;;;4990705;28;20054;-82
2022/09/17 08:40:57;;;;;;;7.32;0.25;;;11.90;75.70;;;;;;4975122;28;21034;-83
2022/09/17 08:43:25;;;;;;;4.05;0.30;;;11.90;76.10;;;;;;4989990;28;20053;-81
2022/09/17 08:45:55;;;;;;;6.30;0.45;;;11.90;76.40;;;;;;4989642;28;20054;-81
2022/09/17 08:48:24;;;;;;;3.53;0.70;;;11.90;76.70;;;;;;4989612;28;20054;-81
2022/09/17 08:50:51;;;;;;;5.85;0.40;;;11.90;76.50;;;;;;4991111;28;20484;-82
2022/09/17 08:53:31;;;;;;;2.58;0.28;;;11.90;76.60;;;;;;4973764;28;20051;-81
2022/09/17 08:56:05;;;;;;;4.50;0.30;;;11.90;76.00;;;;;;4972853;28;20615;-83
2022/09/17 08:58:44;;;;;;;2.92;0.30;;;12.00;76.50;;;;;;4987933;28;20051;-82
2022/09/17 09:01:25;;;;;;;3.40;0.47;;;12.00;75.50;;;;;;4990477;28;20133;-82
2022/09/17 09:04:12;;;;;;;3.50;0.40;;;12.00;75.90;;;;;;4991228;28;20051;-81
2022/09/17 09:06:46;;;;;;;4.57;0.40;;;12.00;76.10;;;;;;4989640;28;20145;-84
2022/09/17 09:09:17;;;;;;;2.63;0.38;;;12.00;76.50;;;;;;4972688;28;20074;-82
2022/09/17 09:11:46;;;;;;;2.83;0.30;;;12.00;77.00;;;;;;4989609;28;20137;-81
2022/09/17 09:14:19;;;;;;;3.53;0.30;;;12.00;77.30;;;;;;4972042;28;20046;-75
2022/09/17 09:16:49;;;;;;;2.53;0.30;;;12.00;77.70;;;;;;4989966;28;20742;-77
2022/09/17 09:19:21;;;;;;;3.33;0.38;;;12.00;76.80;;;;;;4991738;28;20515;-76
2022/09/17 09:22:02;;;;;;;2.97;0.32;;;12.00;77.50;;;;;;4990500;28;20051;-76
2022/09/17 09:24:40;;;;;;;3.83;0.32;;;12.00;78.10;;;;;;4989934;28;20446;-77
2022/09/17 09:27:16;;;;;;;4.50;0.40;;;12.10;78.20;;;;;;4989907;28;20050;-76
2022/09/17 09:29:56;;;;;;;2.33;0.20;;;12.10;78.50;;;;;;4991879;28;20057;-76
2022/09/17 09:32:36;;;;;;;2.70;0.32;;;12.20;78.20;;;;;;4972245;28;20146;-76
2022/09/17 09:35:16;;;;;;;4.30;0.43;;;12.20;77.10;;;;;;4988254;28;20095;-76
2022/09/17 09:37:48;;;;;;;2.88;0.30;;;12.20;77.50;;;;;;4989167;28;20051;-76
2022/09/17 09:40:25;;;;;;;2.83;0.33;;;12.20;78.00;;;;;;4988996;28;20055;-76
2022/09/17 09:42:57;;;;;;;5.43;0.40;;;12.30;79.30;;;;;;4990423;28;20489;-77
2022/09/17 09:45:35;;;;;;;5.05;0.57;;;12.30;78.90;;;;;;4973813;28;20525;-76
2022/09/17 09:48:15;;;;;;;3.50;0.47;;;12.50;78.70;;;;;;4990935;28;20066;-76
2022/09/17 09:50:49;;;;;;;5.03;0.40;;;12.50;78.90;;;;;;4989872;28;20553;-77
2022/09/17 09:53:25;;;;;;;3.37;0.30;;;12.50;79.10;;;;;;4973298;28;20137;-78
2022/09/17 09:56:04;;;;;;;6.32;0.40;;;12.50;79.40;;;;;;5005618;28;20133;-77
2022/09/17 09:58:35;;;;;;;3.58;0.30;;;12.50;79.20;;;;;;4986884;28;20593;-73
2022/09/17 10:01:02;;;;;;;3.33;0.30;;;12.50;79.20;;;;;;4985147;28;20763;-75
2022/09/17 10:03:32;;;;;;;1.20;0.30;;;12.50;78.50;;;;;;4988556;28;20061;-76
2022/09/17 10:06:02;;;;;;;4.40;0.30;;;12.50;77.20;;;;;;4983710;28;20051;-75
2022/09/17 10:08:30;;;;;;;1.70;0.17;;;12.50;76.40;;;;;;4986971;28;20137;-74
2022/09/17 10:11:00;;;;;;;3.72;0.73;;;12.50;76.80;;;;;;4988700;28;20171;-76
2022/09/17 10:13:30;;;;;;;4.57;0.40;;;12.50;76.60;;;;;;4988713;28;20055;-77
2022/09/17 10:16:14;;;;;;;2.63;0.30;;;12.50;77.00;;;;;;4990115;28;20091;-76
2022/09/17 10:18:42;;;;;;;4.07;0.27;;;12.50;77.70;;;;;;4985129;28;20109;-75
2022/09/17 10:21:19;;;;;;;2.85;0.20;;;12.50;77.50;;;;;;4981770;28;20142;-75
2022/09/17 10:23:47;;;;;;;3.13;0.52;;;12.50;77.50;;;;;;4986457;28;20052;-74
2022/09/17 10:26:22;;;;;;;3.20;0.40;;;12.40;78.70;;;;;;4990283;28;20062;-73
2022/09/17 10:28:51;;;;;;;4.35;0.30;;;12.50;78.60;;;;;;4991741;28;20054;-75
2022/09/17 10:31:18;;;;;;;5.17;0.40;;;12.50;78.50;;;;;;4993264;28;20054;-72
2022/09/17 10:33:57;;;;;;;3.78;0.20;;;12.50;78.80;;;;;;4993583;28;20058;-77
2022/09/17 10:36:42;;;;;;;4.38;0.38;;;12.50;77.80;;;;;;4973136;28;20052;-79
2022/09/17 10:39:29;;;;;;;2.25;0.30;;;12.60;77.30;;;;;;4976934;28;20150;-80
2022/09/17 10:41:58;;;;;;;6.00;0.50;;;12.60;76.50;;;;;;4985591;28;20129;-81
2022/09/17 10:44:27;;;;;;;3.07;0.30;;;12.70;76.40;;;;;;4976554;28;20086;-81
2022/09/17 10:46:55;;;;;;;4.63;0.40;;;12.70;77.10;;;;;;4977213;28;20134;-90
2022/09/17 10:49:37;;;;;;;5.40;0.50;;;12.70;77.10;;;;;;4973095;28;20055;-80
2022/09/17 10:52:12;;;;;;;5.05;0.60;;;12.80;77.80;;;;;;4984994;28;20598;-79
2022/09/17 10:55:12;;;;;;;6.85;0.60;;;12.80;76.90;;;;;;4994665;28;20065;-82
2022/09/17 10:58:08;;;;;;;3.53;0.60;;;13.00;77.40;;;;;;4985120;28;20055;-78
2022/09/17 11:00:47;;;;;;;3.28;0.28;;;13.00;75.90;;;;;;4972124;28;20055;-80
2022/09/17 11:03:40;;;;;;;3.88;0.60;;;13.10;75.40;;;;;;4985532;28;20051;-79
2022/09/17 11:06:36;;;;;;;5.53;0.43;;;13.20;76.50;;;;;;4976361;28;20130;-79
2022/09/17 11:09:13;;;;;;;4.22;0.43;;;13.30;76.00;;;;;;4982920;28;20127;-79
2022/09/17 11:11:52;;;;;;;5.53;0.53;;;13.40;75.10;;;;;;4991041;28;20054;-80
2022/09/17 11:14:36;;;;;;;4.47;0.57;;;13.50;73.70;;;;;;5008022;28;20117;-77
2022/09/17 11:17:12;;;;;;;3.45;0.55;;;13.60;71.60;;;;;;4975288;28;20517;-83
2022/09/17 11:19:48;;;;;;;4.75;0.57;;;13.60;71.30;;;;;;4986650;28;20122;-74
2022/09/17 11:22:25;;;;;;;4.32;0.80;;;13.70;69.10;;;;;;4973452;28;21062;-82
2022/09/17 11:25:04;;;;;;;2.70;0.20;;;13.70;70.70;;;;;;4989870;28;20108;-76
2022/09/17 11:27:59;;;;;;;4.43;0.20;;;13.70;70.80;;;;;;4983983;28;20055;-76
2022/09/17 11:30:32;;;;;;;2.90;0.30;;;13.50;70.90;;;;;;4994876;28;20054;-76
2022/09/17 11:33:16;;;;;;;4.25;0.50;;;13.50;71.60;;;;;;5004876;28;20047;-78
2022/09/17 11:35:48;;;;;;;6.90;0.77;;;13.30;71.20;;;;;;4981745;28;20086;-72
2022/09/17 11:38:23;;;;;;;3.03;0.30;;;13.10;71.50;;;;;;4979703;28;20517;-77
2022/09/17 11:40:58;;;;;;;3.42;0.35;;;13.00;72.20;;;;;;4991303;28;20058;-71
2022/09/17 11:43:28;;;;;;;1.85;0.10;;;12.80;73.00;;;;;;4987999;28;20059;-71
2022/09/17 11:46:01;;;;;;;5.85;0.60;;;12.70;73.40;;;;;;4987070;28;21041;-75
2022/09/17 11:48:35;;;;;;;4.30;0.30;;;12.50;74.00;;;;;;4997715;28;20054;-73
2022/09/17 11:51:08;;;;;;;3.23;0.27;;;12.50;74.50;;;;;;5004075;28;20051;-76
2022/09/17 11:53:42;;;;;;;5.28;0.60;;;12.50;75.10;;;;;;4970526;28;20107;-75
2022/09/17 11:56:18;;;;;;;4.40;0.38;;;12.30;74.60;;;;;;5002691;28;20051;-74
2022/09/17 11:58:50;;;;;;;1.77;0.17;;;12.20;74.50;;;;;;4979025;28;20110;-73
2022/09/17 12:01:25;;;;;;;3.45;0.28;;;12.20;75.10;;;;;;4984176;28;20169;-76
2022/09/17 12:03:58;;;;;;;3.17;0.30;;;12.20;74.00;;;;;;4985823;28;20055;-75
2022/09/17 12:06:33;;;;;;;3.63;0.50;;;12.20;73.70;;;;;;4986803;28;20038;-74
2022/09/17 12:09:10;;;;;;;6.05;0.68;;;12.20;73.40;;;;;;4986898;28;20137;-74
2022/09/17 12:11:41;;;;;;;3.70;0.45;;;12.20;74.20;;;;;;4991637;28;20940;-76
2022/09/17 12:14:18;;;;;;;4.80;0.40;;;12.30;74.20;;;;;;4983050;28;20186;-75
2022/09/17 12:16:48;;;;;;;2.30;0.40;;;12.30;74.50;;;;;;4997145;28;20056;-76
2022/09/17 12:19:22;;;;;;;3.15;0.43;;;12.30;75.20;;;;;;4985144;28;20532;-76
2022/09/17 12:21:53;;;;;;;3.55;0.43;;;12.30;75.00;;;;;;4984272;28;20627;-84
2022/09/17 12:24:23;;;;;;;4.50;0.38;;;12.30;74.70;;;;;;4985069;28;20098;-81
2022/09/17 12:27:15;;;;;;;3.97;0.45;;;12.40;75.60;;;;;;4986909;28;20557;-77
2022/09/17 12:30:17;;;;;;;4.13;0.67;;;12.40;75.90;;;;;;4984803;28;20066;-77
2022/09/17 12:32:58;;;;;;;5.28;0.70;;;12.50;77.00;;;;;;4982970;28;20547;-77
2022/09/17 12:35:53;;;;;;;7.22;0.63;;;12.50;76.70;;;;;;4980013;28;20154;-75
2022/09/17 12:38:41;;;;;;;6.43;0.90;;;12.50;77.50;;;;;;4962350;28;20047;-77
2022/09/17 12:41:19;;;;;;;5.97;0.50;;;12.60;77.10;;;;;;4989256;28;20550;-74
2022/09/17 12:44:06;;;;;;;6.93;0.70;;;12.70;77.40;;;;;;4991518;28;20047;-75
2022/09/17 12:46:55;;;;;;;4.32;0.40;;;12.80;77.80;;;;;;4991809;28;20561;-76
2022/09/17 12:49:47;;;;;;;6.18;0.75;;;13.00;77.00;;;;;;4990798;28;20134;-75
2022/09/17 12:52:26;;;;;;;7.38;0.70;;;13.10;76.70;;;;;;4980460;28;20110;-76
2022/09/17 12:55:22;;;;;;;11.90;0.82;;;13.30;75.90;;;;;;5006319;28;20051;-75
2022/09/17 12:58:00;;;;;;;11.43;0.93;;;13.30;75.80;;;;;;4986887;28;20051;-76
2022/09/17 13:00:37;;;;;;;4.70;0.40;;;13.50;75.70;;;;;;4997752;28;20547;-77
2022/09/17 13:03:12;;;;;;;4.53;0.68;;;13.50;73.80;;;;;;4986188;28;20504;-80
2022/09/17 13:06:05;;;;;;;10.15;1.05;;;13.50;72.40;;;;;;4974360;28;20062;-84
2022/09/17 13:09:08;;;;;;;7.03;0.77;;;13.60;73.80;;;;;;4981592;28;20134;-81
2022/09/17 13:11:59;;;;;;;9.13;0.77;;;13.60;74.60;;;;;;4955808;28;20138;-79